sensor_id;sensor_type;location;lat;lon;timestamp;temperature;humidity
26537;DHT22;14204;51.262;5.488;2023-03-05T00:01:20;8.10;99.90
26537;DHT22;14204;51.262;5.488;2023-03-05T00:03:47;8.10;99.90
26537;DHT22;14204;51.262;5.488;2023-03-05T00:06:13;8.20;99.90
26537;DHT22;14204;51.262;5.488;2023-03-05T00:08:40;8.10;99.90
26537;DHT22;14204;51.262;5.488;2023-03-05T00:11:08;8.20;99.90
26537;DHT22;14204;51.262;5.488;2023-03-05T00:13:35;8.20;99.90
26537;DHT22;14204;51.262;5.488;2023-03-05T00:16:09;8.20;99.90
26537;DHT22;14204;51.262;5.488;2023-03-05T00:18:35;8.20;99.90
26537;DHT22;14204;51.262;5.488;2023-03-05T00:21:01;8.20;99.90
26537;DHT22;14204;51.262;5.488;2023-03-05T00:23:27;8.20;99.90
26537;DHT22;14204;51.262;5.488;2023-03-05T00:25:53;8.10;99.90
26537;DHT22;14204;51.262;5.488;2023-03-05T00:28:18;8.10;99.90
26537;DHT22;14204;51.262;5.488;2023-03-05T00:30:44;8.10;99.90
26537;DHT22;14204;51.262;5.488;2023-03-05T00:33:11;8.10;99.90
26537;DHT22;14204;51.262;5.488;2023-03-05T00:35:43;8.10;99.90
26537;DHT22;14204;51.262;5.488;2023-03-05T00:38:09;8.10;99.90
26537;DHT22;14204;51.262;5.488;2023-03-05T00:40:36;8.00;99.90
26537;DHT22;14204;51.262;5.488;2023-03-05T00:43:02;8.00;99.90
26537;DHT22;14204;51.262;5.488;2023-03-05T00:45:28;8.00;99.90
26537;DHT22;14204;51.262;5.488;2023-03-05T00:47:53;8.00;99.90
26537;DHT22;14204;51.262;5.488;2023-03-05T00:50:19;8.00;99.90
26537;DHT22;14204;51.262;5.488;2023-03-05T00:52:44;7.90;99.90
26537;DHT22;14204;51.262;5.488;2023-03-05T00:55:10;7.90;99.90
26537;DHT22;14204;51.262;5.488;2023-03-05T00:57:36;8.00;99.90
26537;DHT22;14204;51.262;5.488;2023-03-05T01:00:02;8.00;99.90
26537;DHT22;14204;51.262;5.488;2023-03-05T01:02:28;8.00;99.90
26537;DHT22;14204;51.262;5.488;2023-03-05T01:04:54;7.90;99.90
26537;DHT22;14204;51.262;5.488;2023-03-05T01:07:19;8.00;99.90
26537;DHT22;14204;51.262;5.488;2023-03-05T01:09:45;8.00;99.90
26537;DHT22;14204;51.262;5.488;2023-03-05T01:12:11;8.00;99.90
26537;DHT22;14204;51.262;5.488;2023-03-05T01:14:36;7.90;99.90
26537;DHT22;14204;51.262;5.488;2023-03-05T01:17:02;7.90;99.90
26537;DHT22;14204;51.262;5.488;2023-03-05T01:19:28;7.90;99.90
26537;DHT22;14204;51.262;5.488;2023-03-05T01:21:54;7.90;99.90
26537;DHT22;14204;51.262;5.488;2023-03-05T01:24:20;7.90;99.90
26537;DHT22;14204;51.262;5.488;2023-03-05T01:26:46;7.90;99.90
26537;DHT22;14204;51.262;5.488;2023-03-05T01:29:14;7.90;99.90
26537;DHT22;14204;51.262;5.488;2023-03-05T01:31:40;7.80;99.90
26537;DHT22;14204;51.262;5.488;2023-03-05T01:34:05;7.90;99.90
26537;DHT22;14204;51.262;5.488;2023-03-05T01:36:32;7.80;99.90
26537;DHT22;14204;51.262;5.488;2023-03-05T01:38:57;7.80;99.90
26537;DHT22;14204;51.262;5.488;2023-03-05T01:41:23;7.80;99.90
26537;DHT22;14204;51.262;5.488;2023-03-05T01:43:49;7.80;99.90
26537;DHT22;14204;51.262;5.488;2023-03-05T01:46:29;7.90;99.90
26537;DHT22;14204;51.262;5.488;2023-03-05T01:51:36;7.80;99.90
26537;DHT22;14204;51.262;5.488;2023-03-05T01:54:05;7.80;99.90
26537;DHT22;14204;51.262;5.488;2023-03-05T01:56:31;7.80;99.90
26537;DHT22;14204;51.262;5.488;2023-03-05T01:58:58;7.80;99.90
26537;DHT22;14204;51.262;5.488;2023-03-05T02:01:36;7.70;99.90
26537;DHT22;14204;51.262;5.488;2023-03-05T02:04:03;7.70;99.90
26537;DHT22;14204;51.262;5.488;2023-03-05T02:06:28;7.70;99.90
26537;DHT22;14204;51.262;5.488;2023-03-05T02:08:54;7.70;99.90
26537;DHT22;14204;51.262;5.488;2023-03-05T02:11:20;7.70;99.90
26537;DHT22;14204;51.262;5.488;2023-03-05T02:13:46;7.70;99.90
26537;DHT22;14204;51.262;5.488;2023-03-05T02:16:12;7.70;99.90
26537;DHT22;14204;51.262;5.488;2023-03-05T02:18:37;7.70;99.90
26537;DHT22;14204;51.262;5.488;2023-03-05T02:21:08;7.70;99.90
26537;DHT22;14204;51.262;5.488;2023-03-05T02:23:35;7.70;99.90
26537;DHT22;14204;51.262;5.488;2023-03-05T02:26:07;7.70;99.90
26537;DHT22;14204;51.262;5.488;2023-03-05T02:31:15;7.60;99.90
26537;DHT22;14204;51.262;5.488;2023-03-05T02:33:41;7.70;99.90
26537;DHT22;14204;51.262;5.488;2023-03-05T02:36:07;7.60;99.90
26537;DHT22;14204;51.262;5.488;2023-03-05T02:38:33;7.60;99.90
26537;DHT22;14204;51.262;5.488;2023-03-05T02:40:59;7.60;99.90
26537;DHT22;14204;51.262;5.488;2023-03-05T02:43:25;7.60;99.90
26537;DHT22;14204;51.262;5.488;2023-03-05T02:45:51;7.60;99.90
26537;DHT22;14204;51.262;5.488;2023-03-05T02:48:17;7.60;99.90
26537;DHT22;14204;51.262;5.488;2023-03-05T02:50:43;7.60;99.90
26537;DHT22;14204;51.262;5.488;2023-03-05T02:53:09;7.60;99.90
26537;DHT22;14204;51.262;5.488;2023-03-05T02:55:35;7.60;99.90
26537;DHT22;14204;51.262;5.488;2023-03-05T02:58:01;7.60;99.90
26537;DHT22;14204;51.262;5.488;2023-03-05T03:00:27;7.60;99.90
26537;DHT22;14204;51.262;5.488;2023-03-05T03:02:52;7.60;99.90
26537;DHT22;14204;51.262;5.488;2023-03-05T03:05:18;7.60;99.90
26537;DHT22;14204;51.262;5.488;2023-03-05T03:07:44;7.60;99.90
26537;DHT22;14204;51.262;5.488;2023-03-05T03:10:10;7.50;99.90
26537;DHT22;14204;51.262;5.488;2023-03-05T03:12:40;7.50;99.90
26537;DHT22;14204;51.262;5.488;2023-03-05T03:15:08;7.50;99.90
26537;DHT22;14204;51.262;5.488;2023-03-05T03:17:35;7.50;99.90
26537;DHT22;14204;51.262;5.488;2023-03-05T03:20:06;7.50;99.90
26537;DHT22;14204;51.262;5.488;2023-03-05T03:22:32;7.50;99.90
26537;DHT22;14204;51.262;5.488;2023-03-05T03:24:58;7.50;99.90
26537;DHT22;14204;51.262;5.488;2023-03-05T03:27:24;7.50;99.90
26537;DHT22;14204;51.262;5.488;2023-03-05T03:29:50;7.50;99.90
26537;DHT22;14204;51.262;5.488;2023-03-05T03:32:15;7.50;99.90
26537;DHT22;14204;51.262;5.488;2023-03-05T03:34:41;7.40;99.90
26537;DHT22;14204;51.262;5.488;2023-03-05T03:37:07;7.40;99.90
26537;DHT22;14204;51.262;5.488;2023-03-05T03:39:33;7.40;99.90
26537;DHT22;14204;51.262;5.488;2023-03-05T03:41:59;7.40;99.90
26537;DHT22;14204;51.262;5.488;2023-03-05T03:44:25;7.40;99.90
26537;DHT22;14204;51.262;5.488;2023-03-05T03:46:50;7.40;99.90
26537;DHT22;14204;51.262;5.488;2023-03-05T03:49:19;7.50;99.90
26537;DHT22;14204;51.262;5.488;2023-03-05T03:51:47;7.40;99.90
26537;DHT22;14204;51.262;5.488;2023-03-05T03:54:14;7.50;99.90
26537;DHT22;14204;51.262;5.488;2023-03-05T03:56:40;7.40;99.90
26537;DHT22;14204;51.262;5.488;2023-03-05T03:59:05;7.40;99.90
26537;DHT22;14204;51.262;5.488;2023-03-05T04:01:31;7.40;99.90
26537;DHT22;14204;51.262;5.488;2023-03-05T04:03:56;7.40;99.90
26537;DHT22;14204;51.262;5.488;2023-03-05T04:06:22;7.30;99.90
26537;DHT22;14204;51.262;5.488;2023-03-05T04:08:48;7.30;99.90
26537;DHT22;14204;51.262;5.488;2023-03-05T04:11:14;7.40;99.90
26537;DHT22;14204;51.262;5.488;2023-03-05T04:13:40;7.40;99.90
26537;DHT22;14204;51.262;5.488;2023-03-05T04:16:06;7.30;99.90
26537;DHT22;14204;51.262;5.488;2023-03-05T04:18:32;7.30;99.90
26537;DHT22;14204;51.262;5.488;2023-03-05T04:20:58;7.30;99.90
26537;DHT22;14204;51.262;5.488;2023-03-05T04:23:24;7.30;99.90
26537;DHT22;14204;51.262;5.488;2023-03-05T04:25:49;7.30;99.90
26537;DHT22;14204;51.262;5.488;2023-03-05T04:28:15;7.30;99.90
26537;DHT22;14204;51.262;5.488;2023-03-05T04:30:42;7.30;99.90
26537;DHT22;14204;51.262;5.488;2023-03-05T04:33:08;7.20;99.90
26537;DHT22;14204;51.262;5.488;2023-03-05T04:35:33;7.30;99.90
26537;DHT22;14204;51.262;5.488;2023-03-05T04:37:59;7.20;99.90
26537;DHT22;14204;51.262;5.488;2023-03-05T04:40:25;7.30;99.90
26537;DHT22;14204;51.262;5.488;2023-03-05T04:42:50;7.20;99.90
26537;DHT22;14204;51.262;5.488;2023-03-05T04:45:16;7.10;99.90
26537;DHT22;14204;51.262;5.488;2023-03-05T04:47:42;7.10;99.90
26537;DHT22;14204;51.262;5.488;2023-03-05T04:50:08;7.00;99.90
26537;DHT22;14204;51.262;5.488;2023-03-05T04:52:41;7.00;99.90
26537;DHT22;14204;51.262;5.488;2023-03-05T04:55:08;7.10;99.90
26537;DHT22;14204;51.262;5.488;2023-03-05T04:57:34;7.00;99.90
26537;DHT22;14204;51.262;5.488;2023-03-05T05:00:00;7.00;99.90
26537;DHT22;14204;51.262;5.488;2023-03-05T05:02:26;6.90;99.90
26537;DHT22;14204;51.262;5.488;2023-03-05T05:04:52;7.00;99.90
26537;DHT22;14204;51.262;5.488;2023-03-05T05:07:18;6.90;99.90
26537;DHT22;14204;51.262;5.488;2023-03-05T05:09:44;7.00;99.90
26537;DHT22;14204;51.262;5.488;2023-03-05T05:12:09;7.00;99.90
26537;DHT22;14204;51.262;5.488;2023-03-05T05:14:35;7.10;99.90
26537;DHT22;14204;51.262;5.488;2023-03-05T05:17:01;7.00;99.90
26537;DHT22;14204;51.262;5.488;2023-03-05T05:19:30;7.00;99.90
26537;DHT22;14204;51.262;5.488;2023-03-05T05:21:56;7.00;99.90
26537;DHT22;14204;51.262;5.488;2023-03-05T05:24:22;7.10;99.90
26537;DHT22;14204;51.262;5.488;2023-03-05T05:26:48;7.10;99.90
26537;DHT22;14204;51.262;5.488;2023-03-05T05:29:14;7.00;99.90
26537;DHT22;14204;51.262;5.488;2023-03-05T05:31:39;7.10;99.90
26537;DHT22;14204;51.262;5.488;2023-03-05T05:34:05;7.10;99.90
26537;DHT22;14204;51.262;5.488;2023-03-05T05:36:30;7.00;99.90
26537;DHT22;14204;51.262;5.488;2023-03-05T05:38:56;7.00;99.90
26537;DHT22;14204;51.262;5.488;2023-03-05T05:41:22;7.10;99.90
26537;DHT22;14204;51.262;5.488;2023-03-05T05:43:47;7.00;99.90
26537;DHT22;14204;51.262;5.488;2023-03-05T05:46:16;6.90;99.90
26537;DHT22;14204;51.262;5.488;2023-03-05T05:48:42;6.90;99.90
26537;DHT22;14204;51.262;5.488;2023-03-05T05:51:11;7.00;99.90
26537;DHT22;14204;51.262;5.488;2023-03-05T05:53:37;7.00;99.90
26537;DHT22;14204;51.262;5.488;2023-03-05T05:56:05;7.00;99.90
26537;DHT22;14204;51.262;5.488;2023-03-05T05:58:30;7.10;99.90
26537;DHT22;14204;51.262;5.488;2023-03-05T06:00:56;7.10;99.90
26537;DHT22;14204;51.262;5.488;2023-03-05T06:03:22;7.10;99.90
26537;DHT22;14204;51.262;5.488;2023-03-05T06:05:48;7.10;99.90
26537;DHT22;14204;51.262;5.488;2023-03-05T06:08:14;7.10;99.90
26537;DHT22;14204;51.262;5.488;2023-03-05T06:10:39;7.10;99.90
26537;DHT22;14204;51.262;5.488;2023-03-05T06:13:05;7.10;99.90
26537;DHT22;14204;51.262;5.488;2023-03-05T06:15:31;7.10;99.90
26537;DHT22;14204;51.262;5.488;2023-03-05T06:17:58;7.10;99.90
26537;DHT22;14204;51.262;5.488;2023-03-05T06:20:24;7.10;99.90
26537;DHT22;14204;51.262;5.488;2023-03-05T06:22:50;7.10;99.90
26537;DHT22;14204;51.262;5.488;2023-03-05T06:25:16;7.10;99.90
26537;DHT22;14204;51.262;5.488;2023-03-05T06:27:41;7.10;99.90
26537;DHT22;14204;51.262;5.488;2023-03-05T06:30:08;7.10;99.90
26537;DHT22;14204;51.262;5.488;2023-03-05T06:32:34;7.10;99.90
26537;DHT22;14204;51.262;5.488;2023-03-05T06:35:00;7.10;99.90
26537;DHT22;14204;51.262;5.488;2023-03-05T06:37:26;7.10;99.90
26537;DHT22;14204;51.262;5.488;2023-03-05T06:39:52;7.10;99.90
26537;DHT22;14204;51.262;5.488;2023-03-05T06:42:18;6.90;99.90
26537;DHT22;14204;51.262;5.488;2023-03-05T06:44:44;6.80;99.90
26537;DHT22;14204;51.262;5.488;2023-03-05T06:47:10;6.80;99.90
26537;DHT22;14204;51.262;5.488;2023-03-05T06:49:37;6.90;99.90
26537;DHT22;14204;51.262;5.488;2023-03-05T06:52:03;6.80;99.90
26537;DHT22;14204;51.262;5.488;2023-03-05T06:54:29;6.70;99.90
26537;DHT22;14204;51.262;5.488;2023-03-05T06:56:55;6.80;99.90
26537;DHT22;14204;51.262;5.488;2023-03-05T06:59:20;6.80;99.90
26537;DHT22;14204;51.262;5.488;2023-03-05T07:01:47;6.80;99.90
26537;DHT22;14204;51.262;5.488;2023-03-05T07:04:14;6.80;99.90
26537;DHT22;14204;51.262;5.488;2023-03-05T07:06:40;6.80;99.90
26537;DHT22;14204;51.262;5.488;2023-03-05T07:09:07;6.80;99.90
26537;DHT22;14204;51.262;5.488;2023-03-05T07:11:34;6.80;99.90
26537;DHT22;14204;51.262;5.488;2023-03-05T07:14:00;6.80;99.90
26537;DHT22;14204;51.262;5.488;2023-03-05T07:16:29;6.80;99.90
26537;DHT22;14204;51.262;5.488;2023-03-05T07:18:56;6.90;99.90
26537;DHT22;14204;51.262;5.488;2023-03-05T07:21:25;6.90;99.90
26537;DHT22;14204;51.262;5.488;2023-03-05T07:23:55;6.80;99.90
26537;DHT22;14204;51.262;5.488;2023-03-05T07:26:22;6.90;99.90
26537;DHT22;14204;51.262;5.488;2023-03-05T07:28:48;6.90;99.90
26537;DHT22;14204;51.262;5.488;2023-03-05T07:31:18;6.90;99.90
26537;DHT22;14204;51.262;5.488;2023-03-05T07:33:48;6.90;99.90
26537;DHT22;14204;51.262;5.488;2023-03-05T07:36:14;6.90;99.90
26537;DHT22;14204;51.262;5.488;2023-03-05T07:38:40;7.00;99.90
26537;DHT22;14204;51.262;5.488;2023-03-05T07:41:09;7.00;99.90
26537;DHT22;14204;51.262;5.488;2023-03-05T07:43:35;6.90;99.90
26537;DHT22;14204;51.262;5.488;2023-03-05T07:46:06;6.90;99.90
26537;DHT22;14204;51.262;5.488;2023-03-05T07:48:32;6.80;99.90
26537;DHT22;14204;51.262;5.488;2023-03-05T07:51:07;7.00;99.90
26537;DHT22;14204;51.262;5.488;2023-03-05T07:53:33;7.00;99.90
26537;DHT22;14204;51.262;5.488;2023-03-05T07:55:58;7.00;99.90
26537;DHT22;14204;51.262;5.488;2023-03-05T07:58:24;7.10;99.90
26537;DHT22;14204;51.262;5.488;2023-03-05T08:00:50;7.20;99.90
26537;DHT22;14204;51.262;5.488;2023-03-05T08:03:16;7.20;99.90
26537;DHT22;14204;51.262;5.488;2023-03-05T08:05:41;7.10;99.90
26537;DHT22;14204;51.262;5.488;2023-03-05T08:08:08;7.00;99.90
26537;DHT22;14204;51.262;5.488;2023-03-05T08:10:35;7.20;99.90
26537;DHT22;14204;51.262;5.488;2023-03-05T08:13:01;7.30;99.90
26537;DHT22;14204;51.262;5.488;2023-03-05T08:15:26;7.30;99.90
26537;DHT22;14204;51.262;5.488;2023-03-05T08:17:52;7.40;99.90
26537;DHT22;14204;51.262;5.488;2023-03-05T08:20:18;7.50;99.90
26537;DHT22;14204;51.262;5.488;2023-03-05T08:22:45;7.50;99.90
26537;DHT22;14204;51.262;5.488;2023-03-05T08:25:11;7.40;99.90
26537;DHT22;14204;51.262;5.488;2023-03-05T08:27:42;7.50;99.90
26537;DHT22;14204;51.262;5.488;2023-03-05T08:30:12;7.40;99.90
26537;DHT22;14204;51.262;5.488;2023-03-05T08:32:38;7.40;99.90
26537;DHT22;14204;51.262;5.488;2023-03-05T08:35:04;7.30;99.90
26537;DHT22;14204;51.262;5.488;2023-03-05T08:37:31;7.40;99.90
26537;DHT22;14204;51.262;5.488;2023-03-05T08:39:57;7.30;99.90
26537;DHT22;14204;51.262;5.488;2023-03-05T08:42:23;7.40;99.90
26537;DHT22;14204;51.262;5.488;2023-03-05T08:44:49;7.60;99.90
26537;DHT22;14204;51.262;5.488;2023-03-05T08:47:15;7.60;99.90
26537;DHT22;14204;51.262;5.488;2023-03-05T08:49:40;7.70;99.90
26537;DHT22;14204;51.262;5.488;2023-03-05T08:52:06;7.70;99.90
26537;DHT22;14204;51.262;5.488;2023-03-05T08:54:33;7.60;99.90
26537;DHT22;14204;51.262;5.488;2023-03-05T08:56:59;7.60;99.90
26537;DHT22;14204;51.262;5.488;2023-03-05T08:59:24;7.60;99.90
26537;DHT22;14204;51.262;5.488;2023-03-05T09:01:50;7.60;99.90
26537;DHT22;14204;51.262;5.488;2023-03-05T09:04:16;7.70;99.90
26537;DHT22;14204;51.262;5.488;2023-03-05T09:06:41;7.80;99.90
26537;DHT22;14204;51.262;5.488;2023-03-05T09:09:07;7.80;99.90
26537;DHT22;14204;51.262;5.488;2023-03-05T09:11:34;7.80;99.90
26537;DHT22;14204;51.262;5.488;2023-03-05T09:14:02;7.90;99.90
26537;DHT22;14204;51.262;5.488;2023-03-05T09:16:28;8.00;99.90
26537;DHT22;14204;51.262;5.488;2023-03-05T09:18:53;7.90;99.90
26537;DHT22;14204;51.262;5.488;2023-03-05T09:21:19;8.00;99.90
26537;DHT22;14204;51.262;5.488;2023-03-05T09:23:45;8.00;99.90
26537;DHT22;14204;51.262;5.488;2023-03-05T09:26:12;8.10;99.90
26537;DHT22;14204;51.262;5.488;2023-03-05T09:28:40;8.10;99.90
26537;DHT22;14204;51.262;5.488;2023-03-05T09:31:07;8.20;99.90
26537;DHT22;14204;51.262;5.488;2023-03-05T09:33:34;8.10;99.90
26537;DHT22;14204;51.262;5.488;2023-03-05T09:36:01;8.20;99.90
26537;DHT22;14204;51.262;5.488;2023-03-05T09:38:28;8.10;99.90
26537;DHT22;14204;51.262;5.488;2023-03-05T09:41:16;8.10;99.90
26537;DHT22;14204;51.262;5.488;2023-03-05T09:52:53;8.30;99.90
26537;DHT22;14204;51.262;5.488;2023-03-05T09:55:24;8.30;99.90
26537;DHT22;14204;51.262;5.488;2023-03-05T09:57:52;8.30;99.90
26537;DHT22;14204;51.262;5.488;2023-03-05T10:00:22;8.40;99.90
26537;DHT22;14204;51.262;5.488;2023-03-05T10:02:53;8.40;99.90
26537;DHT22;14204;51.262;5.488;2023-03-05T10:05:52;8.40;99.90
26537;DHT22;14204;51.262;5.488;2023-03-05T10:08:23;8.40;99.90
26537;DHT22;14204;51.262;5.488;2023-03-05T10:10:53;8.50;99.90
26537;DHT22;14204;51.262;5.488;2023-03-05T10:13:25;8.60;99.90
26537;DHT22;14204;51.262;5.488;2023-03-05T10:21:25;8.60;99.90
26537;DHT22;14204;51.262;5.488;2023-03-05T10:35:07;8.70;99.90
26537;DHT22;14204;51.262;5.488;2023-03-05T10:45:42;8.80;99.90
26537;DHT22;14204;51.262;5.488;2023-03-05T10:51:09;8.80;99.90
26537;DHT22;14204;51.262;5.488;2023-03-05T10:53:57;8.80;99.90
26537;DHT22;14204;51.262;5.488;2023-03-05T10:56:26;8.60;99.90
26537;DHT22;14204;51.262;5.488;2023-03-05T10:58:52;8.60;99.90
26537;DHT22;14204;51.262;5.488;2023-03-05T11:01:23;8.60;99.90
26537;DHT22;14204;51.262;5.488;2023-03-05T11:04:02;8.70;99.90
26537;DHT22;14204;51.262;5.488;2023-03-05T11:06:41;8.90;99.90
26537;DHT22;14204;51.262;5.488;2023-03-05T11:09:20;9.20;99.90
26537;DHT22;14204;51.262;5.488;2023-03-05T11:14:34;9.30;99.90
26537;DHT22;14204;51.262;5.488;2023-03-05T11:17:03;9.40;99.90
26537;DHT22;14204;51.262;5.488;2023-03-05T11:19:47;9.30;99.90
26537;DHT22;14204;51.262;5.488;2023-03-05T11:22:21;9.30;99.90
26537;DHT22;14204;51.262;5.488;2023-03-05T11:25:04;9.30;99.90
26537;DHT22;14204;51.262;5.488;2023-03-05T11:27:37;9.00;99.90
26537;DHT22;14204;51.262;5.488;2023-03-05T11:30:17;9.00;99.90
26537;DHT22;14204;51.262;5.488;2023-03-05T11:32:43;8.90;99.90
26537;DHT22;14204;51.262;5.488;2023-03-05T11:35:30;8.90;99.90
26537;DHT22;14204;51.262;5.488;2023-03-05T11:38:00;8.80;99.90
26537;DHT22;14204;51.262;5.488;2023-03-05T11:40:29;8.80;99.90
26537;DHT22;14204;51.262;5.488;2023-03-05T11:42:58;8.70;99.90
26537;DHT22;14204;51.262;5.488;2023-03-05T11:45:24;8.60;99.90
26537;DHT22;14204;51.262;5.488;2023-03-05T11:48:16;8.60;99.90
26537;DHT22;14204;51.262;5.488;2023-03-05T11:50:46;8.70;99.90
26537;DHT22;14204;51.262;5.488;2023-03-05T11:53:19;8.80;99.90
26537;DHT22;14204;51.262;5.488;2023-03-05T11:56:20;8.80;99.90
26537;DHT22;14204;51.262;5.488;2023-03-05T11:58:42;8.90;99.90
26537;DHT22;14204;51.262;5.488;2023-03-05T12:01:21;8.80;99.90
26537;DHT22;14204;51.262;5.488;2023-03-05T12:03:47;8.70;99.90
26537;DHT22;14204;51.262;5.488;2023-03-05T12:06:32;8.80;99.90
26537;DHT22;14204;51.262;5.488;2023-03-05T12:11:39;9.00;99.90
26537;DHT22;14204;51.262;5.488;2023-03-05T12:14:24;9.10;99.90
26537;DHT22;14204;51.262;5.488;2023-03-05T12:17:03;9.10;99.90
26537;DHT22;14204;51.262;5.488;2023-03-05T12:22:15;9.00;99.90
26537;DHT22;14204;51.262;5.488;2023-03-05T12:24:41;9.00;99.90
26537;DHT22;14204;51.262;5.488;2023-03-05T12:27:09;9.00;99.90
26537;DHT22;14204;51.262;5.488;2023-03-05T12:29:45;9.00;99.90
26537;DHT22;14204;51.262;5.488;2023-03-05T12:35:31;9.00;99.90
26537;DHT22;14204;51.262;5.488;2023-03-05T12:38:00;8.90;99.90
26537;DHT22;14204;51.262;5.488;2023-03-05T12:40:29;8.90;99.90
26537;DHT22;14204;51.262;5.488;2023-03-05T12:43:04;8.90;99.90
26537;DHT22;14204;51.262;5.488;2023-03-05T12:52:59;9.20;99.90
26537;DHT22;14204;51.262;5.488;2023-03-05T13:01:13;9.20;99.90
26537;DHT22;14204;51.262;5.488;2023-03-05T13:03:52;9.20;99.90
26537;DHT22;14204;51.262;5.488;2023-03-05T13:06:27;9.20;99.90
26537;DHT22;14204;51.262;5.488;2023-03-05T13:08:58;9.10;99.90
26537;DHT22;14204;51.262;5.488;2023-03-05T13:11:25;9.10;99.90
26537;DHT22;14204;51.262;5.488;2023-03-05T13:13:52;9.30;99.90
26537;DHT22;14204;51.262;5.488;2023-03-05T13:16:29;9.30;99.90
26537;DHT22;14204;51.262;5.488;2023-03-05T13:19:00;9.40;99.90
26537;DHT22;14204;51.262;5.488;2023-03-05T13:21:31;9.40;99.90
26537;DHT22;14204;51.262;5.488;2023-03-05T13:23:59;9.30;99.90
26537;DHT22;14204;51.262;5.488;2023-03-05T13:26:38;9.30;99.90
26537;DHT22;14204;51.262;5.488;2023-03-05T13:29:12;9.30;99.90
26537;DHT22;14204;51.262;5.488;2023-03-05T13:31:42;9.30;99.90
26537;DHT22;14204;51.262;5.488;2023-03-05T13:34:40;9.30;99.90
26537;DHT22;14204;51.262;5.488;2023-03-05T13:37:18;9.30;99.90
26537;DHT22;14204;51.262;5.488;2023-03-05T13:42:21;9.30;99.90
26537;DHT22;14204;51.262;5.488;2023-03-05T13:44:57;9.20;99.90
26537;DHT22;14204;51.262;5.488;2023-03-05T13:47:25;9.20;99.90
26537;DHT22;14204;51.262;5.488;2023-03-05T13:49:56;9.10;99.90
26537;DHT22;14204;51.262;5.488;2023-03-05T13:52:27;9.10;99.90
26537;DHT22;14204;51.262;5.488;2023-03-05T13:54:55;9.00;99.90
26537;DHT22;14204;51.262;5.488;2023-03-05T13:57:42;9.10;99.90
26537;DHT22;14204;51.262;5.488;2023-03-05T14:02:56;8.90;99.90
26537;DHT22;14204;51.262;5.488;2023-03-05T14:05:23;8.80;99.90
26537;DHT22;14204;51.262;5.488;2023-03-05T14:07:51;8.80;99.90
26537;DHT22;14204;51.262;5.488;2023-03-05T14:10:38;8.90;99.90
26537;DHT22;14204;51.262;5.488;2023-03-05T14:13:11;8.90;99.90
26537;DHT22;14204;51.262;5.488;2023-03-05T14:15:38;8.80;99.90
26537;DHT22;14204;51.262;5.488;2023-03-05T14:18:22;8.90;99.90
26537;DHT22;14204;51.262;5.488;2023-03-05T14:28:42;8.80;99.90
26537;DHT22;14204;51.262;5.488;2023-03-05T14:31:15;8.80;99.90
26537;DHT22;14204;51.262;5.488;2023-03-05T14:33:42;8.60;99.90
26537;DHT22;14204;51.262;5.488;2023-03-05T14:36:08;8.30;99.90
26537;DHT22;14204;51.262;5.488;2023-03-05T14:38:38;8.30;99.90
26537;DHT22;14204;51.262;5.488;2023-03-05T14:43:52;8.40;99.90
26537;DHT22;14204;51.262;5.488;2023-03-05T14:46:18;8.30;99.90
26537;DHT22;14204;51.262;5.488;2023-03-05T14:48:43;8.30;99.90
26537;DHT22;14204;51.262;5.488;2023-03-05T14:51:09;8.10;99.90
26537;DHT22;14204;51.262;5.488;2023-03-05T14:53:43;8.10;99.90
26537;DHT22;14204;51.262;5.488;2023-03-05T14:56:27;7.80;99.90
26537;DHT22;14204;51.262;5.488;2023-03-05T14:58:53;7.70;99.90
26537;DHT22;14204;51.262;5.488;2023-03-05T15:01:19;7.60;99.90
26537;DHT22;14204;51.262;5.488;2023-03-05T15:03:45;7.60;99.90
26537;DHT22;14204;51.262;5.488;2023-03-05T15:06:19;7.60;99.90
26537;DHT22;14204;51.262;5.488;2023-03-05T15:08:46;7.60;99.90
26537;DHT22;14204;51.262;5.488;2023-03-05T15:11:12;7.70;99.90
26537;DHT22;14204;51.262;5.488;2023-03-05T15:13:37;7.70;99.90
26537;DHT22;14204;51.262;5.488;2023-03-05T15:16:04;7.80;99.90
26537;DHT22;14204;51.262;5.488;2023-03-05T15:18:31;7.80;99.90
26537;DHT22;14204;51.262;5.488;2023-03-05T15:20:56;7.90;99.90
26537;DHT22;14204;51.262;5.488;2023-03-05T15:23:22;7.90;99.90
26537;DHT22;14204;51.262;5.488;2023-03-05T15:25:48;7.90;99.90
26537;DHT22;14204;51.262;5.488;2023-03-05T15:28:15;7.90;99.90
26537;DHT22;14204;51.262;5.488;2023-03-05T15:30:44;7.90;99.90
26537;DHT22;14204;51.262;5.488;2023-03-05T15:33:13;8.00;99.90
26537;DHT22;14204;51.262;5.488;2023-03-05T15:35:39;8.00;99.90
26537;DHT22;14204;51.262;5.488;2023-03-05T15:38:05;8.00;99.90
26537;DHT22;14204;51.262;5.488;2023-03-05T15:40:31;8.00;99.90
26537;DHT22;14204;51.262;5.488;2023-03-05T15:42:57;8.10;99.90
26537;DHT22;14204;51.262;5.488;2023-03-05T15:45:24;8.10;99.90
26537;DHT22;14204;51.262;5.488;2023-03-05T15:47:50;8.20;99.90
26537;DHT22;14204;51.262;5.488;2023-03-05T15:50:17;8.10;99.90
26537;DHT22;14204;51.262;5.488;2023-03-05T15:52:43;8.10;99.90
26537;DHT22;14204;51.262;5.488;2023-03-05T15:55:09;8.10;99.90
26537;DHT22;14204;51.262;5.488;2023-03-05T15:57:37;8.10;99.90
26537;DHT22;14204;51.262;5.488;2023-03-05T16:00:06;8.10;99.90
26537;DHT22;14204;51.262;5.488;2023-03-05T16:02:32;8.20;99.90
26537;DHT22;14204;51.262;5.488;2023-03-05T16:04:58;8.00;99.90
26537;DHT22;14204;51.262;5.488;2023-03-05T16:07:24;8.10;99.90
26537;DHT22;14204;51.262;5.488;2023-03-05T16:09:50;8.10;99.90
26537;DHT22;14204;51.262;5.488;2023-03-05T16:12:19;8.20;99.90
26537;DHT22;14204;51.262;5.488;2023-03-05T16:14:47;8.10;99.90
26537;DHT22;14204;51.262;5.488;2023-03-05T16:17:13;8.20;99.90
26537;DHT22;14204;51.262;5.488;2023-03-05T16:19:42;8.30;99.90
26537;DHT22;14204;51.262;5.488;2023-03-05T16:22:08;8.20;99.90
26537;DHT22;14204;51.262;5.488;2023-03-05T16:24:34;8.10;99.90
26537;DHT22;14204;51.262;5.488;2023-03-05T16:27:00;8.10;99.90
26537;DHT22;14204;51.262;5.488;2023-03-05T16:29:25;8.10;99.90
26537;DHT22;14204;51.262;5.488;2023-03-05T16:31:53;8.00;99.90
26537;DHT22;14204;51.262;5.488;2023-03-05T16:34:19;8.00;99.90
26537;DHT22;14204;51.262;5.488;2023-03-05T16:36:49;8.10;99.90
26537;DHT22;14204;51.262;5.488;2023-03-05T16:39:17;8.10;99.90
26537;DHT22;14204;51.262;5.488;2023-03-05T16:41:43;8.10;99.90
26537;DHT22;14204;51.262;5.488;2023-03-05T16:44:09;8.10;99.90
26537;DHT22;14204;51.262;5.488;2023-03-05T16:46:35;8.10;99.90
26537;DHT22;14204;51.262;5.488;2023-03-05T16:49:01;8.10;99.90
26537;DHT22;14204;51.262;5.488;2023-03-05T16:51:27;8.00;99.90
26537;DHT22;14204;51.262;5.488;2023-03-05T16:53:52;8.00;99.90
26537;DHT22;14204;51.262;5.488;2023-03-05T16:56:18;8.00;99.90
26537;DHT22;14204;51.262;5.488;2023-03-05T16:58:44;7.90;99.90
26537;DHT22;14204;51.262;5.488;2023-03-05T17:01:16;7.80;99.90
26537;DHT22;14204;51.262;5.488;2023-03-05T17:03:42;7.80;99.90
26537;DHT22;14204;51.262;5.488;2023-03-05T17:06:13;7.90;99.90
26537;DHT22;14204;51.262;5.488;2023-03-05T17:08:40;7.90;99.90
26537;DHT22;14204;51.262;5.488;2023-03-05T17:11:06;7.80;99.90
26537;DHT22;14204;51.262;5.488;2023-03-05T17:13:33;7.80;99.90